sensor_id;sensor_type;location;lat;lon;timestamp;temperature;humidity
23731;DHT22;12046;44.702;10.622;2023-09-07T00:00:02;22.10;87.80
23731;DHT22;12046;44.702;10.622;2023-09-07T00:02:31;22.00;88.00
23731;DHT22;12046;44.702;10.622;2023-09-07T00:04:56;21.90;88.20
23731;DHT22;12046;44.702;10.622;2023-09-07T00:07:23;21.90;88.40
23731;DHT22;12046;44.702;10.622;2023-09-07T00:09:49;21.80;88.50
23731;DHT22;12046;44.702;10.622;2023-09-07T00:12:15;21.80;88.70
23731;DHT22;12046;44.702;10.622;2023-09-07T00:14:40;21.80;88.80
23731;DHT22;12046;44.702;10.622;2023-09-07T00:17:06;21.70;88.90
23731;DHT22;12046;44.702;10.622;2023-09-07T00:19:32;21.70;89.20
23731;DHT22;12046;44.702;10.622;2023-09-07T00:22:03;21.70;89.40
23731;DHT22;12046;44.702;10.622;2023-09-07T00:24:30;21.70;89.50
23731;DHT22;12046;44.702;10.622;2023-09-07T00:26:57;21.70;89.60
23731;DHT22;12046;44.702;10.622;2023-09-07T00:29:23;21.60;89.80
23731;DHT22;12046;44.702;10.622;2023-09-07T00:31:49;21.60;90.00
23731;DHT22;12046;44.702;10.622;2023-09-07T00:34:15;21.60;90.40
23731;DHT22;12046;44.702;10.622;2023-09-07T00:36:41;21.60;90.20
23731;DHT22;12046;44.702;10.622;2023-09-07T00:39:07;21.60;90.30
23731;DHT22;12046;44.702;10.622;2023-09-07T00:41:34;21.50;90.30
23731;DHT22;12046;44.702;10.622;2023-09-07T00:44:00;21.50;90.40
23731;DHT22;12046;44.702;10.622;2023-09-07T00:46:26;21.50;90.50
23731;DHT22;12046;44.702;10.622;2023-09-07T00:48:52;21.50;90.60
23731;DHT22;12046;44.702;10.622;2023-09-07T00:51:18;21.50;90.70
23731;DHT22;12046;44.702;10.622;2023-09-07T00:53:44;21.40;90.70
23731;DHT22;12046;44.702;10.622;2023-09-07T00:56:10;21.40;90.80
23731;DHT22;12046;44.702;10.622;2023-09-07T00:58:37;21.30;90.80
23731;DHT22;12046;44.702;10.622;2023-09-07T01:01:03;21.30;90.90
23731;DHT22;12046;44.702;10.622;2023-09-07T01:03:29;21.30;91.00
23731;DHT22;12046;44.702;10.622;2023-09-07T01:06:12;21.20;91.00
23731;DHT22;12046;44.702;10.622;2023-09-07T01:08:59;21.30;91.20
23731;DHT22;12046;44.702;10.622;2023-09-07T01:11:26;21.20;91.20
23731;DHT22;12046;44.702;10.622;2023-09-07T01:13:52;21.20;91.20
23731;DHT22;12046;44.702;10.622;2023-09-07T01:16:22;21.20;91.30
23731;DHT22;12046;44.702;10.622;2023-09-07T01:18:49;21.20;91.40
23731;DHT22;12046;44.702;10.622;2023-09-07T01:21:16;21.20;91.40
23731;DHT22;12046;44.702;10.622;2023-09-07T01:23:44;21.20;91.50
23731;DHT22;12046;44.702;10.622;2023-09-07T01:26:10;21.20;91.50
23731;DHT22;12046;44.702;10.622;2023-09-07T01:28:37;21.30;91.50
23731;DHT22;12046;44.702;10.622;2023-09-07T01:31:04;21.30;91.50
23731;DHT22;12046;44.702;10.622;2023-09-07T01:33:30;21.30;91.50
23731;DHT22;12046;44.702;10.622;2023-09-07T01:35:56;21.30;91.50
23731;DHT22;12046;44.702;10.622;2023-09-07T01:38:22;21.30;91.60
23731;DHT22;12046;44.702;10.622;2023-09-07T01:40:47;21.30;91.60
23731;DHT22;12046;44.702;10.622;2023-09-07T01:43:13;21.30;91.60
23731;DHT22;12046;44.702;10.622;2023-09-07T01:45:39;21.30;91.60
23731;DHT22;12046;44.702;10.622;2023-09-07T01:48:10;21.30;91.60
23731;DHT22;12046;44.702;10.622;2023-09-07T01:50:37;21.30;91.70
23731;DHT22;12046;44.702;10.622;2023-09-07T01:53:03;21.30;91.70
23731;DHT22;12046;44.702;10.622;2023-09-07T01:55:31;21.30;91.70
23731;DHT22;12046;44.702;10.622;2023-09-07T01:57:56;21.20;91.70
23731;DHT22;12046;44.702;10.622;2023-09-07T02:00:22;21.20;91.80
23731;DHT22;12046;44.702;10.622;2023-09-07T02:02:48;21.20;91.80
23731;DHT22;12046;44.702;10.622;2023-09-07T02:05:14;21.20;91.90
23731;DHT22;12046;44.702;10.622;2023-09-07T02:07:40;21.10;91.90
23731;DHT22;12046;44.702;10.622;2023-09-07T02:10:06;21.10;91.90
23731;DHT22;12046;44.702;10.622;2023-09-07T02:12:32;21.00;92.00
23731;DHT22;12046;44.702;10.622;2023-09-07T02:15:04;21.00;92.00
23731;DHT22;12046;44.702;10.622;2023-09-07T02:17:30;20.90;92.10
23731;DHT22;12046;44.702;10.622;2023-09-07T02:19:58;20.90;92.20
23731;DHT22;12046;44.702;10.622;2023-09-07T02:22:24;20.80;92.30
23731;DHT22;12046;44.702;10.622;2023-09-07T02:24:49;20.70;92.40
23731;DHT22;12046;44.702;10.622;2023-09-07T02:27:16;20.60;92.50
23731;DHT22;12046;44.702;10.622;2023-09-07T02:29:41;20.50;92.70
23731;DHT22;12046;44.702;10.622;2023-09-07T02:32:07;20.50;92.90
23731;DHT22;12046;44.702;10.622;2023-09-07T02:34:34;20.40;93.00
23731;DHT22;12046;44.702;10.622;2023-09-07T02:37:02;20.30;93.20
23731;DHT22;12046;44.702;10.622;2023-09-07T02:39:28;20.20;93.40
23731;DHT22;12046;44.702;10.622;2023-09-07T02:41:54;20.20;93.60
23731;DHT22;12046;44.702;10.622;2023-09-07T02:44:20;20.10;93.70
23731;DHT22;12046;44.702;10.622;2023-09-07T02:46:46;20.00;94.00
23731;DHT22;12046;44.702;10.622;2023-09-07T02:49:13;19.90;94.10
23731;DHT22;12046;44.702;10.622;2023-09-07T02:51:38;19.80;94.30
23731;DHT22;12046;44.702;10.622;2023-09-07T02:54:04;19.80;94.50
23731;DHT22;12046;44.702;10.622;2023-09-07T02:56:31;19.70;94.70
23731;DHT22;12046;44.702;10.622;2023-09-07T02:58:57;19.70;94.90
23731;DHT22;12046;44.702;10.622;2023-09-07T03:01:23;19.60;95.00
23731;DHT22;12046;44.702;10.622;2023-09-07T03:03:48;19.60;95.20
23731;DHT22;12046;44.702;10.622;2023-09-07T03:06:15;19.60;95.30
23731;DHT22;12046;44.702;10.622;2023-09-07T03:08:42;19.60;95.40
23731;DHT22;12046;44.702;10.622;2023-09-07T03:11:09;19.60;95.60
23731;DHT22;12046;44.702;10.622;2023-09-07T03:13:35;19.60;95.60
23731;DHT22;12046;44.702;10.622;2023-09-07T03:16:03;19.60;95.70
23731;DHT22;12046;44.702;10.622;2023-09-07T03:18:29;19.60;95.80
23731;DHT22;12046;44.702;10.622;2023-09-07T03:20:55;19.60;95.80
23731;DHT22;12046;44.702;10.622;2023-09-07T03:23:23;19.60;95.90
23731;DHT22;12046;44.702;10.622;2023-09-07T03:25:49;19.50;96.00
23731;DHT22;12046;44.702;10.622;2023-09-07T03:28:15;19.50;96.10
23731;DHT22;12046;44.702;10.622;2023-09-07T03:30:40;19.40;96.20
23731;DHT22;12046;44.702;10.622;2023-09-07T03:33:06;19.40;96.30
23731;DHT22;12046;44.702;10.622;2023-09-07T03:35:32;19.30;96.50
23731;DHT22;12046;44.702;10.622;2023-09-07T03:37:58;19.30;96.70
23731;DHT22;12046;44.702;10.622;2023-09-07T03:40:24;19.30;96.80
23731;DHT22;12046;44.702;10.622;2023-09-07T03:42:50;19.30;96.90
23731;DHT22;12046;44.702;10.622;2023-09-07T03:45:16;19.30;96.90
23731;DHT22;12046;44.702;10.622;2023-09-07T03:47:42;19.30;96.90
23731;DHT22;12046;44.702;10.622;2023-09-07T03:50:09;19.30;96.90
23731;DHT22;12046;44.702;10.622;2023-09-07T03:52:35;19.30;97.00
23731;DHT22;12046;44.702;10.622;2023-09-07T03:55:01;19.20;97.00
23731;DHT22;12046;44.702;10.622;2023-09-07T03:57:27;19.20;97.10
23731;DHT22;12046;44.702;10.622;2023-09-07T03:59:53;19.20;97.20
23731;DHT22;12046;44.702;10.622;2023-09-07T04:02:23;19.20;97.40
23731;DHT22;12046;44.702;10.622;2023-09-07T04:04:50;19.10;97.50
23731;DHT22;12046;44.702;10.622;2023-09-07T04:07:16;19.10;97.60
23731;DHT22;12046;44.702;10.622;2023-09-07T04:09:45;19.10;97.70
23731;DHT22;12046;44.702;10.622;2023-09-07T04:12:12;19.10;97.80
23731;DHT22;12046;44.702;10.622;2023-09-07T04:15:08;19.10;98.00
23731;DHT22;12046;44.702;10.622;2023-09-07T04:17:40;19.00;98.10
23731;DHT22;12046;44.702;10.622;2023-09-07T04:20:12;19.00;98.20
23731;DHT22;12046;44.702;10.622;2023-09-07T04:22:43;19.00;98.30
23731;DHT22;12046;44.702;10.622;2023-09-07T04:25:12;18.90;98.40
23731;DHT22;12046;44.702;10.622;2023-09-07T04:27:44;18.90;98.60
23731;DHT22;12046;44.702;10.622;2023-09-07T04:30:15;18.80;98.80
23731;DHT22;12046;44.702;10.622;2023-09-07T04:32:47;18.80;98.90
23731;DHT22;12046;44.702;10.622;2023-09-07T04:35:13;18.90;99.10
23731;DHT22;12046;44.702;10.622;2023-09-07T04:37:42;18.90;99.20
23731;DHT22;12046;44.702;10.622;2023-09-07T04:40:23;18.80;99.30
23731;DHT22;12046;44.702;10.622;2023-09-07T04:43:01;18.90;99.40
23731;DHT22;12046;44.702;10.622;2023-09-07T04:45:27;18.80;99.50
23731;DHT22;12046;44.702;10.622;2023-09-07T04:47:55;18.90;99.60
23731;DHT22;12046;44.702;10.622;2023-09-07T04:50:31;18.80;99.70
23731;DHT22;12046;44.702;10.622;2023-09-07T04:53:00;18.90;99.80
23731;DHT22;12046;44.702;10.622;2023-09-07T04:55:25;18.90;99.80
23731;DHT22;12046;44.702;10.622;2023-09-07T04:57:51;18.90;99.90
23731;DHT22;12046;44.702;10.622;2023-09-07T05:00:20;18.90;99.90
23731;DHT22;12046;44.702;10.622;2023-09-07T05:02:46;19.00;99.90
23731;DHT22;12046;44.702;10.622;2023-09-07T05:05:12;19.00;99.90
23731;DHT22;12046;44.702;10.622;2023-09-07T05:07:40;19.00;99.90
23731;DHT22;12046;44.702;10.622;2023-09-07T05:10:07;19.10;99.90
23731;DHT22;12046;44.702;10.622;2023-09-07T05:12:34;19.10;99.90
23731;DHT22;12046;44.702;10.622;2023-09-07T05:15:06;19.20;99.90
23731;DHT22;12046;44.702;10.622;2023-09-07T05:17:33;19.20;99.90
23731;DHT22;12046;44.702;10.622;2023-09-07T05:20:05;19.30;99.90
23731;DHT22;12046;44.702;10.622;2023-09-07T05:22:33;19.40;99.90
23731;DHT22;12046;44.702;10.622;2023-09-07T05:25:04;19.50;99.90
23731;DHT22;12046;44.702;10.622;2023-09-07T05:27:34;19.60;99.90
23731;DHT22;12046;44.702;10.622;2023-09-07T05:30:03;19.70;99.90
23731;DHT22;12046;44.702;10.622;2023-09-07T05:32:29;19.70;99.90
23731;DHT22;12046;44.702;10.622;2023-09-07T05:34:57;19.80;99.80
23731;DHT22;12046;44.702;10.622;2023-09-07T05:37:23;19.80;99.60
23731;DHT22;12046;44.702;10.622;2023-09-07T05:39:54;19.80;99.60
23731;DHT22;12046;44.702;10.622;2023-09-07T05:42:23;19.90;99.60
23731;DHT22;12046;44.702;10.622;2023-09-07T05:45:05;19.90;99.60
23731;DHT22;12046;44.702;10.622;2023-09-07T05:50:33;20.00;99.60
23731;DHT22;12046;44.702;10.622;2023-09-07T05:53:03;20.10;99.50
23731;DHT22;12046;44.702;10.622;2023-09-07T05:55:35;20.20;99.50
23731;DHT22;12046;44.702;10.622;2023-09-07T05:58:05;20.30;99.40
23731;DHT22;12046;44.702;10.622;2023-09-07T06:00:38;20.40;99.30
23731;DHT22;12046;44.702;10.622;2023-09-07T06:03:06;20.60;99.10
23731;DHT22;12046;44.702;10.622;2023-09-07T06:05:44;20.70;99.00
23731;DHT22;12046;44.702;10.622;2023-09-07T06:08:13;20.80;98.80
23731;DHT22;12046;44.702;10.622;2023-09-07T06:10:39;20.90;98.70
23731;DHT22;12046;44.702;10.622;2023-09-07T06:13:10;21.10;98.60
23731;DHT22;12046;44.702;10.622;2023-09-07T06:15:39;21.20;98.50
23731;DHT22;12046;44.702;10.622;2023-09-07T06:18:11;21.40;98.30
23731;DHT22;12046;44.702;10.622;2023-09-07T06:20:36;21.50;98.10
23731;DHT22;12046;44.702;10.622;2023-09-07T06:23:02;21.60;97.80
23731;DHT22;12046;44.702;10.622;2023-09-07T06:25:35;21.80;97.60
23731;DHT22;12046;44.702;10.622;2023-09-07T06:28:06;21.90;97.40
23731;DHT22;12046;44.702;10.622;2023-09-07T06:30:32;22.10;97.30
23731;DHT22;12046;44.702;10.622;2023-09-07T06:33:11;22.20;97.10
23731;DHT22;12046;44.702;10.622;2023-09-07T06:35:39;22.40;96.90
23731;DHT22;12046;44.702;10.622;2023-09-07T06:38:11;22.50;96.70
23731;DHT22;12046;44.702;10.622;2023-09-07T06:41:00;22.60;96.50
23731;DHT22;12046;44.702;10.622;2023-09-07T06:43:35;22.80;96.30
23731;DHT22;12046;44.702;10.622;2023-09-07T06:46:05;22.90;96.10
23731;DHT22;12046;44.702;10.622;2023-09-07T06:51:24;23.20;95.80
23731;DHT22;12046;44.702;10.622;2023-09-07T06:53:52;23.40;95.60
23731;DHT22;12046;44.702;10.622;2023-09-07T06:56:20;23.50;95.40
23731;DHT22;12046;44.702;10.622;2023-09-07T06:58:46;23.70;95.20
23731;DHT22;12046;44.702;10.622;2023-09-07T07:01:18;23.80;95.00
23731;DHT22;12046;44.702;10.622;2023-09-07T07:06:42;24.00;94.40
23731;DHT22;12046;44.702;10.622;2023-09-07T07:09:10;24.10;94.10
23731;DHT22;12046;44.702;10.622;2023-09-07T07:11:36;24.20;93.90
23731;DHT22;12046;44.702;10.622;2023-09-07T07:14:04;24.30;93.70
23731;DHT22;12046;44.702;10.622;2023-09-07T07:16:30;24.40;93.50
23731;DHT22;12046;44.702;10.622;2023-09-07T07:18:56;24.50;93.40
23731;DHT22;12046;44.702;10.622;2023-09-07T07:21:24;24.60;93.20
23731;DHT22;12046;44.702;10.622;2023-09-07T07:23:50;24.80;93.10
23731;DHT22;12046;44.702;10.622;2023-09-07T07:26:16;24.90;93.00
23731;DHT22;12046;44.702;10.622;2023-09-07T07:28:43;25.10;93.00
23731;DHT22;12046;44.702;10.622;2023-09-07T07:31:09;25.20;92.80
23731;DHT22;12046;44.702;10.622;2023-09-07T07:33:35;25.30;92.60
23731;DHT22;12046;44.702;10.622;2023-09-07T07:36:03;25.50;92.30
23731;DHT22;12046;44.702;10.622;2023-09-07T07:38:29;25.60;92.20
23731;DHT22;12046;44.702;10.622;2023-09-07T07:40:55;25.80;92.00
23731;DHT22;12046;44.702;10.622;2023-09-07T07:43:21;25.90;91.90
23731;DHT22;12046;44.702;10.622;2023-09-07T07:45:54;26.00;91.70
23731;DHT22;12046;44.702;10.622;2023-09-07T07:48:20;26.10;91.60
23731;DHT22;12046;44.702;10.622;2023-09-07T07:50:46;26.30;91.50
23731;DHT22;12046;44.702;10.622;2023-09-07T07:53:12;26.40;91.30
23731;DHT22;12046;44.702;10.622;2023-09-07T07:55:38;26.50;91.10
23731;DHT22;12046;44.702;10.622;2023-09-07T07:58:07;26.70;90.90
23731;DHT22;12046;44.702;10.622;2023-09-07T08:00:34;26.80;90.80
23731;DHT22;12046;44.702;10.622;2023-09-07T08:03:01;27.00;90.60
23731;DHT22;12046;44.702;10.622;2023-09-07T08:05:37;27.10;90.20
23731;DHT22;12046;44.702;10.622;2023-09-07T08:08:05;27.20;89.10
23731;DHT22;12046;44.702;10.622;2023-09-07T08:10:35;27.30;88.10
23731;DHT22;12046;44.702;10.622;2023-09-07T08:13:03;27.30;88.10
23731;DHT22;12046;44.702;10.622;2023-09-07T08:15:33;27.40;88.10
23731;DHT22;12046;44.702;10.622;2023-09-07T08:17:59;27.50;88.00
23731;DHT22;12046;44.702;10.622;2023-09-07T08:20:26;27.70;87.70
23731;DHT22;12046;44.702;10.622;2023-09-07T08:22:52;27.80;87.50
23731;DHT22;12046;44.702;10.622;2023-09-07T08:25:18;28.00;87.00
23731;DHT22;12046;44.702;10.622;2023-09-07T08:27:46;28.10;86.20
23731;DHT22;12046;44.702;10.622;2023-09-07T08:30:14;28.20;85.80
23731;DHT22;12046;44.702;10.622;2023-09-07T08:32:44;28.30;85.60
23731;DHT22;12046;44.702;10.622;2023-09-07T08:35:11;28.40;85.70
23731;DHT22;12046;44.702;10.622;2023-09-07T08:37:40;28.50;85.60
23731;DHT22;12046;44.702;10.622;2023-09-07T08:40:07;28.70;85.40
23731;DHT22;12046;44.702;10.622;2023-09-07T08:42:37;28.90;85.20
23731;DHT22;12046;44.702;10.622;2023-09-07T08:45:14;29.00;84.70
23731;DHT22;12046;44.702;10.622;2023-09-07T08:47:41;29.20;83.90
23731;DHT22;12046;44.702;10.622;2023-09-07T08:50:12;29.20;83.70
23731;DHT22;12046;44.702;10.622;2023-09-07T08:52:39;29.30;83.70
23731;DHT22;12046;44.702;10.622;2023-09-07T08:55:06;29.40;83.70
23731;DHT22;12046;44.702;10.622;2023-09-07T08:57:41;29.60;83.50
23731;DHT22;12046;44.702;10.622;2023-09-07T09:00:10;29.70;83.20
23731;DHT22;12046;44.702;10.622;2023-09-07T09:02:47;29.80;83.00
23731;DHT22;12046;44.702;10.622;2023-09-07T09:05:18;29.80;82.80
23731;DHT22;12046;44.702;10.622;2023-09-07T09:08:04;29.90;82.80
23731;DHT22;12046;44.702;10.622;2023-09-07T09:10:30;30.00;82.90
23731;DHT22;12046;44.702;10.622;2023-09-07T09:12:56;30.10;82.70
23731;DHT22;12046;44.702;10.622;2023-09-07T09:15:22;30.20;82.50
23731;DHT22;12046;44.702;10.622;2023-09-07T09:17:48;30.30;82.50
23731;DHT22;12046;44.702;10.622;2023-09-07T09:20:24;30.50;82.20
23731;DHT22;12046;44.702;10.622;2023-09-07T09:22:54;30.60;82.30
23731;DHT22;12046;44.702;10.622;2023-09-07T09:25:21;30.70;81.60
23731;DHT22;12046;44.702;10.622;2023-09-07T09:27:49;30.80;81.60
23731;DHT22;12046;44.702;10.622;2023-09-07T09:30:18;30.90;81.50
23731;DHT22;12046;44.702;10.622;2023-09-07T09:32:47;31.20;81.40
23731;DHT22;12046;44.702;10.622;2023-09-07T09:35:16;31.50;80.30
23731;DHT22;12046;44.702;10.622;2023-09-07T09:37:47;32.20;79.40
23731;DHT22;12046;44.702;10.622;2023-09-07T09:40:18;33.20;77.80
23731;DHT22;12046;44.702;10.622;2023-09-07T09:45:11;37.30;70.10
23731;DHT22;12046;44.702;10.622;2023-09-07T09:47:43;38.80;67.20
23731;DHT22;12046;44.702;10.622;2023-09-07T09:50:10;39.70;64.90
23731;DHT22;12046;44.702;10.622;2023-09-07T09:52:37;40.20;63.50
23731;DHT22;12046;44.702;10.622;2023-09-07T09:55:07;40.00;62.60
23731;DHT22;12046;44.702;10.622;2023-09-07T09:57:36;39.50;62.10
23731;DHT22;12046;44.702;10.622;2023-09-07T10:00:06;38.90;62.50
23731;DHT22;12046;44.702;10.622;2023-09-07T10:03:05;38.40;62.90
23731;DHT22;12046;44.702;10.622;2023-09-07T10:05:33;37.70;62.60
23731;DHT22;12046;44.702;10.622;2023-09-07T10:08:14;37.30;62.90
23731;DHT22;12046;44.702;10.622;2023-09-07T10:10:46;36.90;62.90
23731;DHT22;12046;44.702;10.622;2023-09-07T10:13:16;36.50;63.00
23731;DHT22;12046;44.702;10.622;2023-09-07T10:15:42;36.10;63.10
23731;DHT22;12046;44.702;10.622;2023-09-07T10:18:15;35.70;63.10
23731;DHT22;12046;44.702;10.622;2023-09-07T10:21:24;35.50;63.20
23731;DHT22;12046;44.702;10.622;2023-09-07T10:23:54;35.10;63.60
23731;DHT22;12046;44.702;10.622;2023-09-07T10:27:25;34.70;63.80
23731;DHT22;12046;44.702;10.622;2023-09-07T10:29:53;34.60;64.20
23731;DHT22;12046;44.702;10.622;2023-09-07T10:32:19;34.50;64.40
23731;DHT22;12046;44.702;10.622;2023-09-07T10:35:00;34.40;64.30
23731;DHT22;12046;44.702;10.622;2023-09-07T10:41:06;34.20;64.50
23731;DHT22;12046;44.702;10.622;2023-09-07T10:43:56;34.10;64.40
23731;DHT22;12046;44.702;10.622;2023-09-07T10:46:41;34.10;64.60
23731;DHT22;12046;44.702;10.622;2023-09-07T10:49:11;34.10;64.60
23731;DHT22;12046;44.702;10.622;2023-09-07T10:51:56;34.20;64.50
23731;DHT22;12046;44.702;10.622;2023-09-07T10:54:57;34.20;64.40
23731;DHT22;12046;44.702;10.622;2023-09-07T10:57:26;34.20;64.20
23731;DHT22;12046;44.702;10.622;2023-09-07T10:59:52;34.20;64.10
23731;DHT22;12046;44.702;10.622;2023-09-07T11:02:34;34.10;63.70
23731;DHT22;12046;44.702;10.622;2023-09-07T11:05:47;34.00;63.60
23731;DHT22;12046;44.702;10.622;2023-09-07T11:08:14;34.00;63.60
23731;DHT22;12046;44.702;10.622;2023-09-07T11:10:40;34.00;64.00
23731;DHT22;12046;44.702;10.622;2023-09-07T11:13:13;34.00;64.10
23731;DHT22;12046;44.702;10.622;2023-09-07T11:15:42;34.00;64.50
23731;DHT22;12046;44.702;10.622;2023-09-07T11:18:10;34.10;64.60
23731;DHT22;12046;44.702;10.622;2023-09-07T11:20:37;34.10;64.70
23731;DHT22;12046;44.702;10.622;2023-09-07T11:23:10;34.20;64.80
23731;DHT22;12046;44.702;10.622;2023-09-07T11:25:51;34.40;64.50
23731;DHT22;12046;44.702;10.622;2023-09-07T11:28:17;34.50;64.30
23731;DHT22;12046;44.702;10.622;2023-09-07T11:30:58;34.50;63.80
23731;DHT22;12046;44.702;10.622;2023-09-07T11:33:31;34.50;63.70
23731;DHT22;12046;44.702;10.622;2023-09-07T11:35:57;34.50;63.60
23731;DHT22;12046;44.702;10.622;2023-09-07T11:38:28;34.50;63.50
23731;DHT22;12046;44.702;10.622;2023-09-07T11:40:57;34.50;63.60
23731;DHT22;12046;44.702;10.622;2023-09-07T11:43:25;34.50;63.80
23731;DHT22;12046;44.702;10.622;2023-09-07T11:45:51;34.50;64.10
23731;DHT22;12046;44.702;10.622;2023-09-07T11:48:17;34.50;64.40
23731;DHT22;12046;44.702;10.622;2023-09-07T11:50:47;34.50;64.20
23731;DHT22;12046;44.702;10.622;2023-09-07T11:53:12;34.50;64.10
23731;DHT22;12046;44.702;10.622;2023-09-07T11:55:56;34.60;63.30
23731;DHT22;12046;44.702;10.622;2023-09-07T12:01:38;34.50;63.00
23731;DHT22;12046;44.702;10.622;2023-09-07T12:04:35;34.40;63.10
23731;DHT22;12046;44.702;10.622;2023-09-07T12:07:36;34.30;63.50
23731;DHT22;12046;44.702;10.622;2023-09-07T12:10:09;34.30;63.90
23731;DHT22;12046;44.702;10.622;2023-09-07T12:12:40;34.30;63.50
23731;DHT22;12046;44.702;10.622;2023-09-07T12:18:35;34.30;62.80
23731;DHT22;12046;44.702;10.622;2023-09-07T12:21:10;34.00;62.20
23731;DHT22;12046;44.702;10.622;2023-09-07T12:23:39;33.70;62.50
23731;DHT22;12046;44.702;10.622;2023-09-07T12:26:05;33.50;63.00
23731;DHT22;12046;44.702;10.622;2023-09-07T12:28:33;33.30;63.40
23731;DHT22;12046;44.702;10.622;2023-09-07T12:30:59;33.30;62.90
23731;DHT22;12046;44.702;10.622;2023-09-07T12:33:25;33.20;62.90
23731;DHT22;12046;44.702;10.622;2023-09-07T12:35:51;33.30;63.10
23731;DHT22;12046;44.702;10.622;2023-09-07T12:38:20;33.30;63.20
23731;DHT22;12046;44.702;10.622;2023-09-07T12:40:50;33.50;63.40
23731;DHT22;12046;44.702;10.622;2023-09-07T12:43:18;33.60;62.40
23731;DHT22;12046;44.702;10.622;2023-09-07T12:45:45;33.60;61.80
23731;DHT22;12046;44.702;10.622;2023-09-07T12:48:17;33.60;62.10
23731;DHT22;12046;44.702;10.622;2023-09-07T12:50:43;33.50;62.40
23731;DHT22;12046;44.702;10.622;2023-09-07T12:53:09;33.30;62.70
23731;DHT22;12046;44.702;10.622;2023-09-07T12:55:35;33.20;63.00
23731;DHT22;12046;44.702;10.622;2023-09-07T12:58:16;33.20;63.50
23731;DHT22;12046;44.702;10.622;2023-09-07T13:00:44;33.10;63.80
23731;DHT22;12046;44.702;10.622;2023-09-07T13:03:16;33.20;63.30
23731;DHT22;12046;44.702;10.622;2023-09-07T13:09:12;33.10;63.20
23731;DHT22;12046;44.702;10.622;2023-09-07T13:11:42;33.00;63.50
23731;DHT22;12046;44.702;10.622;2023-09-07T13:14:08;32.90;63.50
23731;DHT22;12046;44.702;10.622;2023-09-07T13:16:36;32.90;63.70
23731;DHT22;12046;44.702;10.622;2023-09-07T13:19:02;33.00;64.00
23731;DHT22;12046;44.702;10.622;2023-09-07T13:21:31;33.10;63.60
23731;DHT22;12046;44.702;10.622;2023-09-07T13:23:57;33.10;62.90
23731;DHT22;12046;44.702;10.622;2023-09-07T13:26:23;33.20;62.80
23731;DHT22;12046;44.702;10.622;2023-09-07T13:28:49;33.20;62.70
23731;DHT22;12046;44.702;10.622;2023-09-07T13:31:14;33.20;62.70
23731;DHT22;12046;44.702;10.622;2023-09-07T13:33:40;33.20;62.60
23731;DHT22;12046;44.702;10.622;2023-09-07T13:36:06;33.30;62.60
23731;DHT22;12046;44.702;10.622;2023-09-07T13:38:35;33.40;62.70
23731;DHT22;12046;44.702;10.622;2023-09-07T13:41:00;33.50;62.70
23731;DHT22;12046;44.702;10.622;2023-09-07T13:43:29;33.60;62.70
23731;DHT22;12046;44.702;10.622;2023-09-07T13:45:58;33.60;62.50
23731;DHT22;12046;44.702;10.622;2023-09-07T13:48:33;33.70;62.30
23731;DHT22;12046;44.702;10.622;2023-09-07T13:50:59;33.70;62.10
23731;DHT22;12046;44.702;10.622;2023-09-07T13:53:28;33.80;61.30
23731;DHT22;12046;44.702;10.622;2023-09-07T13:56:00;33.60;61.10
23731;DHT22;12046;44.702;10.622;2023-09-07T13:58:35;33.60;61.40
23731;DHT22;12046;44.702;10.622;2023-09-07T14:01:14;33.50;61.60
23731;DHT22;12046;44.702;10.622;2023-09-07T14:03:46;33.50;61.70
23731;DHT22;12046;44.702;10.622;2023-09-07T14:06:12;33.50;61.90
23731;DHT22;12046;44.702;10.622;2023-09-07T14:08:38;33.50;61.40
23731;DHT22;12046;44.702;10.622;2023-09-07T14:11:04;33.40;61.00
23731;DHT22;12046;44.702;10.622;2023-09-07T14:13:31;33.30;61.20
23731;DHT22;12046;44.702;10.622;2023-09-07T14:16:00;33.30;62.20
23731;DHT22;12046;44.702;10.622;2023-09-07T14:44:28;32.80;61.60
23731;DHT22;12046;44.702;10.622;2023-09-07T14:46:54;32.90;62.80
23731;DHT22;12046;44.702;10.622;2023-09-07T14:49:20;32.90;62.90
23731;DHT22;12046;44.702;10.622;2023-09-07T14:51:46;32.90;63.20
23731;DHT22;12046;44.702;10.622;2023-09-07T14:54:12;33.00;63.20
23731;DHT22;12046;44.702;10.622;2023-09-07T14:56:38;33.00;61.90
23731;DHT22;12046;44.702;10.622;2023-09-07T14:59:05;32.90;61.80
23731;DHT22;12046;44.702;10.622;2023-09-07T15:01:32;32.90;61.90
23731;DHT22;12046;44.702;10.622;2023-09-07T15:04:00;32.90;62.10
23731;DHT22;12046;44.702;10.622;2023-09-07T15:06:25;32.90;62.20
23731;DHT22;12046;44.702;10.622;2023-09-07T15:08:51;32.80;61.80
23731;DHT22;12046;44.702;10.622;2023-09-07T15:11:17;32.80;62.00
23731;DHT22;12046;44.702;10.622;2023-09-07T15:13:43;32.70;62.10
23731;DHT22;12046;44.702;10.622;2023-09-07T15:16:11;32.60;62.00
23731;DHT22;12046;44.702;10.622;2023-09-07T15:18:36;32.50;62.20
23731;DHT22;12046;44.702;10.622;2023-09-07T15:21:02;32.40;62.20
23731;DHT22;12046;44.702;10.622;2023-09-07T15:23:28;32.30;61.70
23731;DHT22;12046;44.702;10.622;2023-09-07T15:25:54;32.20;61.90
23731;DHT22;12046;44.702;10.622;2023-09-07T15:28:20;32.00;61.90
23731;DHT22;12046;44.702;10.622;2023-09-07T15:30:46;31.90;62.20
23731;DHT22;12046;44.702;10.622;2023-09-07T15:33:12;31.70;62.40
23731;DHT22;12046;44.702;10.622;2023-09-07T15:35:37;31.60;62.70
23731;DHT22;12046;44.702;10.622;2023-09-07T15:38:03;31.50;63.00
23731;DHT22;12046;44.702;10.622;2023-09-07T15:40:29;31.40;62.80
23731;DHT22;12046;44.702;10.622;2023-09-07T15:42:55;31.30;63.00
23731;DHT22;12046;44.702;10.622;2023-09-07T15:45:21;31.20;63.20
23731;DHT22;12046;44.702;10.622;2023-09-07T15:47:47;31.10;63.30
23731;DHT22;12046;44.702;10.622;2023-09-07T15:50:13;31.00;62.70
23731;DHT22;12046;44.702;10.622;2023-09-07T15:52:48;30.90;63.60
23731;DHT22;12046;44.702;10.622;2023-09-07T15:55:16;30.90;63.90
23731;DHT22;12046;44.702;10.622;2023-09-07T15:57:42;30.80;64.00
23731;DHT22;12046;44.702;10.622;2023-09-07T16:00:09;30.90;64.20
23731;DHT22;12046;44.702;10.622;2023-09-07T16:02:37;30.80;63.70
23731;DHT22;12046;44.702;10.622;2023-09-07T16:05:03;30.80;63.60
23731;DHT22;12046;44.702;10.622;2023-09-07T16:07:29;30.80;63.70
23731;DHT22;12046;44.702;10.622;2023-09-07T16:09:55;30.70;63.60
23731;DHT22;12046;44.702;10.622;2023-09-07T16:12:21;30.70;63.60
23731;DHT22;12046;44.702;10.622;2023-09-07T16:14:47;30.70;63.60
23731;DHT22;12046;44.702;10.622;2023-09-07T16:17:12;30.60;63.30